Time;durP1;ratioP1;P1;durP2;ratioP2;P2;SDS_P1;SDS_P2;PMS_P1;PMS_P2;Temp;Humidity;BMP_temperature;BMP_pressure;BME280_temperature;BME280_humidity;BME280_pressure;Samples;Min_cycle;Max_cycle;Signal;HPM_P1;HPM_P2
2022/03/05 00:02:13;;;;;;;373.45;190.27;;;1.90;1.00;;;;;;5064011;28;20086;-79
2022/03/05 00:04:42;;;;;;;378.67;196.20;;;1.90;1.00;;;;;;5063308;28;20519;-82
2022/03/05 00:07:10;;;;;;;345.70;183.85;;;1.90;1.00;;;;;;5081444;28;20041;-81
2022/03/05 00:09:38;;;;;;;350.70;190.02;;;1.90;26.60;;;;;;5081179;28;20039;-82
2022/03/05 00:12:05;;;;;;;310.70;156.85;;;1.90;94.90;;;;;;5081914;28;20037;-80
2022/03/05 00:14:33;;;;;;;277.55;144.27;;;2.00;94.30;;;;;;5081106;28;20499;-81
2022/03/05 00:17:01;;;;;;;305.98;157.68;;;2.00;99.90;;;;;;5072243;28;20110;-80
2022/03/05 00:19:28;;;;;;;316.92;166.43;;;2.00;91.00;;;;;;5051380;28;20056;-81
2022/03/05 00:21:59;;;;;;;382.85;202.93;;;2.00;76.40;;;;;;5075347;28;20056;-78
2022/03/05 00:24:27;;;;;;;384.70;208.48;;;2.10;96.60;;;;;;5076751;28;20168;-80
2022/03/05 00:26:54;;;;;;;386.48;209.90;;;2.20;15.30;;;;;;5053287;28;20029;-81
2022/03/05 00:29:22;;;;;;;422.13;225.02;;;2.10;3.50;;;;;;5055622;28;20041;-81
2022/03/05 00:31:50;;;;;;;388.45;211.60;;;2.10;70.10;;;;;;5052672;28;20041;-81
2022/03/05 00:34:17;;;;;;;355.63;192.88;;;2.10;27.20;;;;;;5069460;28;20519;-81
2022/03/05 00:36:44;;;;;;;322.35;173.38;;;2.00;20.80;;;;;;5046128;28;20147;-81
2022/03/05 00:39:13;;;;;;;307.63;162.13;;;2.10;34.20;;;;;;5060749;28;20471;-81
2022/03/05 00:41:41;;;;;;;266.33;143.52;;;2.10;65.80;;;;;;5042289;28;20048;-81
2022/03/05 00:44:09;;;;;;;262.00;141.75;;;2.20;50.30;;;;;;5060315;28;20039;-80
2022/03/05 00:46:36;;;;;;;309.75;163.95;;;2.30;41.70;;;;;;5060082;28;20388;-81
2022/03/05 00:49:05;;;;;;;262.33;139.45;;;2.30;1.00;;;;;;5060274;28;20566;-80
2022/03/05 00:51:32;;;;;;;286.40;153.05;;;2.30;1.00;;;;;;5042668;28;20053;-82
2022/03/05 00:54:00;;;;;;;328.88;177.82;;;2.20;1.00;;;;;;5060353;28;20384;-82
2022/03/05 00:56:30;;;;;;;345.98;186.68;;;2.20;16.60;;;;;;5091723;28;20588;-79
2022/03/05 00:58:57;;;;;;;328.63;176.68;;;2.20;22.20;;;;;;5085235;28;20051;-80
2022/03/05 01:01:26;;;;;;;303.15;162.05;;;2.30;2.50;;;;;;5060503;28;20044;-81
2022/03/05 01:03:54;;;;;;;292.92;157.88;;;2.30;1.00;;;;;;5078565;28;20040;-80
2022/03/05 01:06:21;;;;;;;284.38;152.35;;;2.30;1.00;;;;;;5078604;28;20048;-81
2022/03/05 01:08:49;;;;;;;275.17;147.15;;;2.40;1.00;;;;;;5077805;28;20037;-82
2022/03/05 01:11:16;;;;;;;269.95;146.82;;;2.40;1.00;;;;;;5076986;28;20048;-80
2022/03/05 01:13:46;;;;;;;269.48;145.30;;;2.40;1.00;;;;;;5060539;28;20040;-81
2022/03/05 01:16:14;;;;;;;251.00;136.40;;;2.40;1.00;;;;;;5044527;28;20047;-82
2022/03/05 01:18:42;;;;;;;242.70;132.32;;;2.40;1.00;;;;;;5057566;28;20049;-79
2022/03/05 01:21:10;;;;;;;246.15;133.55;;;2.40;1.00;;;;;;5039093;28;20127;-80
2022/03/05 01:23:38;;;;;;;237.50;129.82;;;2.40;1.00;;;;;;5032961;28;20055;-80
2022/03/05 01:26:05;;;;;;;236.05;128.73;;;2.30;1.00;;;;;;5055628;28;20120;-80
2022/03/05 01:28:33;;;;;;;200.93;111.65;;;2.30;1.00;;;;;;5040132;28;20048;-79
2022/03/05 01:31:04;;;;;;;200.70;111.32;;;2.20;1.00;;;;;;5069615;28;20071;-81
2022/03/05 01:33:31;;;;;;;205.35;113.35;;;2.20;37.20;;;;;;5060343;28;20044;-82
2022/03/05 01:35:59;;;;;;;211.90;112.57;;;2.10;79.10;;;;;;5072355;28;20080;-81
2022/03/05 01:38:26;;;;;;;212.40;119.65;;;2.10;96.20;;;;;;5046499;28;20041;-80
2022/03/05 01:40:54;;;;;;;238.02;130.55;;;2.00;98.80;;;;;;5042866;28;20151;-82
2022/03/05 01:43:21;;;;;;;237.90;129.55;;;2.00;99.90;;;;;;5049092;28;20053;-81
2022/03/05 01:45:49;;;;;;;250.25;137.25;;;2.00;99.90;;;;;;5043086;28;20052;-81
2022/03/05 01:48:18;;;;;;;254.20;137.43;;;1.90;99.90;;;;;;5046318;28;20037;-82
2022/03/05 01:50:47;;;;;;;255.93;137.65;;;1.90;99.90;;;;;;5064930;28;20048;-82
2022/03/05 01:53:15;;;;;;;253.50;137.20;;;2.00;99.90;;;;;;5064559;28;20407;-81
2022/03/05 01:55:43;;;;;;;248.07;137.05;;;2.00;99.90;;;;;;5058029;28;20515;-81
2022/03/05 01:58:11;;;;;;;238.45;131.57;;;1.90;99.90;;;;;;5086522;28;20064;-82
2022/03/05 02:00:39;;;;;;;255.98;136.18;;;1.90;99.90;;;;;;5085171;28;20040;-81
2022/03/05 02:03:07;;;;;;;238.45;129.48;;;2.00;99.90;;;;;;5049346;28;20060;-81
2022/03/05 02:05:37;;;;;;;225.43;124.25;;;2.00;99.90;;;;;;5039598;28;20080;-80
2022/03/05 02:08:05;;;;;;;219.27;121.35;;;1.90;99.90;;;;;;5053475;28;20067;-79
2022/03/05 02:10:33;;;;;;;215.55;117.13;;;2.00;99.90;;;;;;5052855;28;20084;-79
2022/03/05 02:13:04;;;;;;;227.63;123.80;;;2.00;99.90;;;;;;5058443;28;20041;-82
2022/03/05 02:15:33;;;;;;;214.43;116.45;;;2.00;99.90;;;;;;5039341;28;20045;-82
2022/03/05 02:18:02;;;;;;;190.18;107.82;;;1.90;99.90;;;;;;5055538;28;20399;-82
2022/03/05 02:20:31;;;;;;;206.43;115.07;;;1.80;99.90;;;;;;5057970;28;20057;-83
2022/03/05 02:22:59;;;;;;;194.15;109.57;;;1.90;99.90;;;;;;5047484;28;20516;-81
2022/03/05 02:25:28;;;;;;;189.23;107.07;;;1.90;99.90;;;;;;5031640;28;20045;-82
2022/03/05 02:27:58;;;;;;;182.45;103.70;;;2.00;99.90;;;;;;5040127;28;20044;-81
2022/03/05 02:30:25;;;;;;;172.20;98.95;;;2.10;99.90;;;;;;5039488;28;20044;-83
2022/03/05 02:32:53;;;;;;;185.02;107.95;;;2.10;99.90;;;;;;5057052;28;20112;-81
2022/03/05 02:35:20;;;;;;;194.30;109.97;;;2.20;99.90;;;;;;5057293;28;20040;-83
2022/03/05 02:37:49;;;;;;;193.15;109.15;;;2.20;99.90;;;;;;5039954;28;20041;-82
2022/03/05 02:40:16;;;;;;;197.10;110.72;;;2.20;99.90;;;;;;5057847;28;20045;-82
2022/03/05 02:42:44;;;;;;;201.82;115.60;;;2.10;99.90;;;;;;5057609;28;20048;-81
2022/03/05 02:45:12;;;;;;;219.70;120.63;;;2.10;99.90;;;;;;5057094;28;20045;-81
2022/03/05 02:47:39;;;;;;;193.48;112.07;;;2.00;99.90;;;;;;5038725;28;20053;-81
2022/03/05 02:50:08;;;;;;;205.18;113.13;;;2.00;99.90;;;;;;5059799;28;20053;-81
2022/03/05 02:52:39;;;;;;;201.90;113.50;;;2.10;99.90;;;;;;5050108;28;20120;-80
2022/03/05 02:55:09;;;;;;;200.75;114.68;;;2.10;99.90;;;;;;5053628;28;20121;-80
2022/03/05 02:57:36;;;;;;;173.82;101.00;;;2.10;99.90;;;;;;5072651;28;20045;-81
2022/03/05 03:00:05;;;;;;;177.13;100.57;;;2.00;99.90;;;;;;5071891;28;20045;-80
2022/03/05 03:02:33;;;;;;;188.48;106.43;;;2.00;99.90;;;;;;5055269;28;20056;-80
2022/03/05 03:05:01;;;;;;;176.30;101.35;;;2.00;99.90;;;;;;5056482;28;20029;-81
2022/03/05 03:07:28;;;;;;;163.32;96.38;;;2.10;99.90;;;;;;5053399;28;20571;-81
2022/03/05 03:09:56;;;;;;;166.02;99.65;;;2.00;99.90;;;;;;5070790;28;20059;-80
2022/03/05 03:12:25;;;;;;;167.80;97.32;;;2.10;99.90;;;;;;5074149;28;20033;-81
2022/03/05 03:14:53;;;;;;;170.18;99.15;;;2.00;99.90;;;;;;5074366;28;20106;-77
2022/03/05 03:17:20;;;;;;;171.80;98.63;;;2.00;99.90;;;;;;5054348;28;20055;-81
2022/03/05 03:19:48;;;;;;;175.10;100.68;;;1.90;99.90;;;;;;5071876;28;20056;-81
2022/03/05 03:22:15;;;;;;;184.07;101.45;;;1.90;99.90;;;;;;5074134;28;20029;-80
2022/03/05 03:24:43;;;;;;;192.48;105.82;;;1.80;99.90;;;;;;5056807;28;20045;-80
2022/03/05 03:27:10;;;;;;;188.77;108.90;;;1.80;99.90;;;;;;5070619;28;20095;-81
2022/03/05 03:29:39;;;;;;;181.05;103.22;;;1.70;99.90;;;;;;5060164;28;20041;-82
2022/03/05 03:32:08;;;;;;;170.15;97.43;;;1.70;99.90;;;;;;5041615;28;20143;-82
2022/03/05 03:34:35;;;;;;;186.95;105.40;;;1.70;99.90;;;;;;5040769;28;20056;-80
2022/03/05 03:37:03;;;;;;;194.77;112.70;;;1.60;99.90;;;;;;5058963;28;20095;-82
2022/03/05 03:39:31;;;;;;;218.65;120.63;;;1.60;99.90;;;;;;5060670;28;20045;-81
2022/03/05 03:41:58;;;;;;;201.95;114.28;;;1.60;99.90;;;;;;5044736;28;20053;-81
2022/03/05 03:44:26;;;;;;;198.45;110.07;;;1.50;1.00;;;;;;5060737;28;20103;-82
2022/03/05 03:46:56;;;;;;;173.77;99.10;;;1.60;1.00;;;;;;5059560;28;20048;-81
2022/03/05 03:49:24;;;;;;;174.90;103.15;;;1.50;1.00;;;;;;5067781;28;20061;-79
2022/03/05 03:51:52;;;;;;;171.35;97.35;;;1.50;1.00;;;;;;5056324;28;20056;-81
2022/03/05 03:54:19;;;;;;;171.15;97.07;;;1.40;1.00;;;;;;5043530;28;20070;-81
2022/03/05 03:56:47;;;;;;;176.38;100.43;;;1.40;1.00;;;;;;5016393;28;20505;-81
2022/03/05 03:59:15;;;;;;;170.82;99.20;;;1.30;1.00;;;;;;5033090;28;20077;-81
2022/03/05 04:01:42;;;;;;;160.23;93.97;;;1.20;1.00;;;;;;5016494;28;20531;-81
2022/03/05 04:04:11;;;;;;;185.35;104.50;;;1.20;1.00;;;;;;5018721;28;20045;-82
2022/03/05 04:09:24;;;;;;;198.45;110.60;;;1.20;1.00;;;;;;5056857;28;20037;-80
2022/03/05 04:11:51;;;;;;;203.13;109.15;;;1.20;1.00;;;;;;5059167;28;20542;-82
2022/03/05 04:14:19;;;;;;;231.30;124.25;;;1.10;1.00;;;;;;5060136;28;20095;-81
2022/03/05 04:16:47;;;;;;;223.40;121.70;;;1.20;1.00;;;;;;5042908;28;20139;-81
2022/03/05 04:19:16;;;;;;;217.32;119.97;;;1.20;1.00;;;;;;5042854;28;20057;-81
2022/03/05 04:21:44;;;;;;;206.38;117.60;;;1.20;1.00;;;;;;5062587;28;20558;-80
2022/03/05 04:24:11;;;;;;;194.25;105.05;;;1.20;1.00;;;;;;5073727;28;20029;-80
2022/03/05 04:26:39;;;;;;;193.38;105.80;;;1.30;1.00;;;;;;5078244;28;20052;-80
2022/03/05 04:29:06;;;;;;;175.05;101.07;;;1.30;1.00;;;;;;5076145;28;20104;-78
2022/03/05 04:31:34;;;;;;;185.43;103.25;;;1.30;1.00;;;;;;5076682;28;20105;-80
2022/03/05 04:34:02;;;;;;;182.35;101.63;;;1.30;1.00;;;;;;5077396;28;20085;-80
2022/03/05 04:36:31;;;;;;;172.75;97.03;;;1.30;1.00;;;;;;5077020;28;20072;-79
2022/03/05 04:38:59;;;;;;;152.35;89.45;;;1.20;1.00;;;;;;5079173;28;20039;-79
2022/03/05 04:41:26;;;;;;;156.27;87.10;;;1.20;1.00;;;;;;5062102;28;20476;-81
2022/03/05 04:43:54;;;;;;;175.05;99.43;;;1.20;1.00;;;;;;5078009;28;20079;-78
2022/03/05 04:46:21;;;;;;;187.90;105.22;;;1.10;1.00;;;;;;5079002;28;20109;-79
2022/03/05 04:48:49;;;;;;;177.88;102.38;;;1.00;1.00;;;;;;5048822;28;20056;-82
2022/03/05 04:51:16;;;;;;;171.45;100.30;;;1.00;1.00;;;;;;5061666;28;20045;-80
2022/03/05 04:53:45;;;;;;;174.88;98.47;;;1.00;1.00;;;;;;5061240;28;20044;-81
2022/03/05 04:56:13;;;;;;;175.68;101.90;;;0.90;1.00;;;;;;5058069;28;20050;-81
2022/03/05 04:58:40;;;;;;;172.32;100.57;;;0.90;1.00;;;;;;5063715;28;20124;-82
2022/03/05 05:01:08;;;;;;;171.07;103.25;;;0.90;1.00;;;;;;5077731;28;20071;-81
2022/03/05 05:03:36;;;;;;;175.88;104.72;;;1.00;1.00;;;;;;5061334;28;20048;-81
2022/03/05 05:06:05;;;;;;;178.55;103.10;;;0.90;1.00;;;;;;5043172;28;20223;-81
2022/03/05 05:08:32;;;;;;;175.52;99.38;;;0.90;1.00;;;;;;5045100;28;20128;-82
2022/03/05 05:11:01;;;;;;;172.05;100.10;;;1.00;1.00;;;;;;5061130;28;20049;-81
2022/03/05 05:13:29;;;;;;;168.98;98.68;;;1.00;1.00;;;;;;5059215;28;20041;-81
2022/03/05 05:15:56;;;;;;;162.15;98.53;;;1.00;1.00;;;;;;5041574;28;20041;-81
2022/03/05 05:18:24;;;;;;;155.13;95.32;;;1.10;1.00;;;;;;5059844;28;20052;-81
2022/03/05 05:20:51;;;;;;;162.80;94.32;;;1.00;1.00;;;;;;5042635;28;20056;-81
2022/03/05 05:23:19;;;;;;;210.93;115.28;;;1.10;1.00;;;;;;5027752;28;20136;-81
2022/03/05 05:25:46;;;;;;;196.45;110.57;;;1.00;1.00;;;;;;5041608;28;20121;-82
2022/03/05 05:28:15;;;;;;;169.00;100.07;;;1.00;1.00;;;;;;5053456;28;20112;-82
2022/03/05 05:30:43;;;;;;;172.48;102.57;;;1.10;1.00;;;;;;5053732;28;20044;-83
2022/03/05 05:33:10;;;;;;;172.15;101.88;;;1.00;1.00;;;;;;5066570;28;20061;-82
2022/03/05 05:35:38;;;;;;;161.98;97.50;;;1.10;1.00;;;;;;5050020;28;20057;-81
2022/03/05 05:38:05;;;;;;;159.05;92.85;;;1.00;1.00;;;;;;5063619;28;20037;-82
2022/03/05 05:40:34;;;;;;;156.40;90.10;;;1.00;1.00;;;;;;5042169;28;20092;-79
2022/03/05 05:43:01;;;;;;;152.75;90.60;;;0.90;1.00;;;;;;5039053;28;20059;-79
2022/03/05 05:45:30;;;;;;;151.48;93.18;;;0.90;1.00;;;;;;5055199;28;20063;-78
2022/03/05 05:48:01;;;;;;;165.18;98.85;;;1.00;1.00;;;;;;5037750;28;20389;-80
2022/03/05 05:50:29;;;;;;;161.57;94.75;;;1.00;1.00;;;;;;5031805;28;20041;-79
2022/03/05 05:52:56;;;;;;;171.48;102.57;;;1.00;1.00;;;;;;5054228;28;20076;-79
2022/03/05 05:55:24;;;;;;;175.23;100.18;;;1.00;1.00;;;;;;5053183;28;20041;-79
2022/03/05 05:57:52;;;;;;;182.75;102.68;;;1.00;1.00;;;;;;5035252;28;20041;-79
2022/03/05 06:00:19;;;;;;;170.10;102.45;;;1.00;1.00;;;;;;5017614;28;20136;-80
2022/03/05 06:02:48;;;;;;;187.77;106.70;;;1.00;1.00;;;;;;5036440;28;20127;-82
2022/03/05 06:05:16;;;;;;;191.73;109.10;;;0.90;1.00;;;;;;5055413;28;20103;-80
2022/03/05 06:07:43;;;;;;;204.23;112.88;;;1.00;1.00;;;;;;5036951;28;20048;-80
2022/03/05 06:10:11;;;;;;;208.75;119.32;;;1.10;1.00;;;;;;5054771;28;20033;-80
2022/03/05 06:12:38;;;;;;;218.00;119.63;;;1.10;1.00;;;;;;5037095;28;20479;-81
2022/03/05 06:15:09;;;;;;;226.38;122.78;;;1.10;1.00;;;;;;5037346;28;20053;-80
2022/03/05 06:17:37;;;;;;;235.55;127.20;;;1.20;1.00;;;;;;5053290;28;20133;-79
2022/03/05 06:20:08;;;;;;;236.13;128.98;;;1.10;99.90;;;;;;5053768;28;20504;-81
2022/03/05 06:22:36;;;;;;;276.13;142.02;;;1.10;1.00;;;;;;5041537;28;20152;-81
2022/03/05 06:25:03;;;;;;;269.08;142.13;;;1.20;1.00;;;;;;5054533;28;20564;-82
2022/03/05 06:27:31;;;;;;;300.02;150.73;;;1.30;99.90;;;;;;5037222;28;20091;-80
2022/03/05 06:29:59;;;;;;;338.20;166.00;;;1.40;99.90;;;;;;5055051;28;20040;-81
2022/03/05 06:32:27;;;;;;;337.40;166.77;;;1.50;99.90;;;;;;5053671;28;20438;-80
2022/03/05 06:34:55;;;;;;;295.20;154.23;;;1.60;99.90;;;;;;5054278;28;20056;-79
2022/03/05 06:37:24;;;;;;;274.63;143.68;;;1.70;99.90;;;;;;5036812;28;20102;-80
2022/03/05 06:39:52;;;;;;;247.05;134.52;;;1.80;99.90;;;;;;5038216;28;20508;-81
2022/03/05 06:42:20;;;;;;;221.10;125.30;;;1.80;97.50;;;;;;5039390;28;20072;-82
2022/03/05 06:44:47;;;;;;;235.40;126.00;;;2.00;90.70;;;;;;5039055;28;20087;-82
2022/03/05 06:47:15;;;;;;;232.63;127.30;;;2.00;7.60;;;;;;5057033;28;20408;-81
2022/03/05 06:49:42;;;;;;;229.18;125.30;;;1.90;1.00;;;;;;5057907;28;20045;-81
2022/03/05 06:52:11;;;;;;;216.63;122.38;;;2.00;1.00;;;;;;5040427;28;20045;-79
2022/03/05 06:54:40;;;;;;;219.02;124.75;;;2.00;1.00;;;;;;5034795;28;20072;-81
2022/03/05 06:57:08;;;;;;;229.93;124.43;;;2.10;1.00;;;;;;5059179;28;20040;-82
2022/03/05 06:59:35;;;;;;;224.32;122.50;;;2.10;1.00;;;;;;5041291;28;20386;-80
2022/03/05 07:02:03;;;;;;;235.00;129.63;;;2.20;1.00;;;;;;5059803;28;20097;-81
2022/03/05 07:04:31;;;;;;;251.80;137.88;;;2.10;1.00;;;;;;5059075;28;20049;-80
2022/03/05 07:06:58;;;;;;;251.02;139.95;;;2.10;1.00;;;;;;5045218;28;20073;-79
2022/03/05 07:09:26;;;;;;;243.18;137.30;;;2.10;1.00;;;;;;5050000;28;20049;-81
2022/03/05 07:11:55;;;;;;;242.77;138.95;;;2.10;1.00;;;;;;5059542;28;20045;-82
2022/03/05 07:14:23;;;;;;;255.15;138.02;;;2.20;1.00;;;;;;5059034;28;20045;-81
2022/03/05 07:16:50;;;;;;;235.50;134.00;;;2.50;1.00;;;;;;5063057;28;20044;-80
2022/03/05 07:19:17;;;;;;;251.63;141.05;;;2.80;1.00;;;;;;5064833;28;20056;-81
2022/03/05 07:21:45;;;;;;;238.00;139.13;;;3.30;1.00;;;;;;5043851;28;20440;-81
2022/03/05 07:24:13;;;;;;;232.27;134.25;;;3.70;1.00;;;;;;5058427;28;20476;-81
2022/03/05 07:26:40;;;;;;;236.02;133.65;;;3.90;1.00;;;;;;5058178;28;20044;-80
2022/03/05 07:29:10;;;;;;;211.27;126.57;;;4.10;1.00;;;;;;5057702;28;20036;-79
2022/03/05 07:31:37;;;;;;;201.18;121.13;;;4.30;1.00;;;;;;5056991;28;20043;-80
2022/03/05 07:34:05;;;;;;;199.90;121.05;;;4.40;1.00;;;;;;5041836;28;20053;-82
2022/03/05 07:36:33;;;;;;;186.25;114.53;;;4.40;99.90;;;;;;5061700;28;20120;-79
2022/03/05 07:39:00;;;;;;;172.48;103.68;;;4.50;1.00;;;;;;5063080;28;20170;-81
2022/03/05 07:41:28;;;;;;;167.27;102.22;;;4.60;1.00;;;;;;5065621;28;20045;-80
2022/03/05 07:43:55;;;;;;;168.43;99.07;;;4.80;1.00;;;;;;5063385;28;20409;-78
2022/03/05 07:46:25;;;;;;;148.38;89.55;;;5.00;1.00;;;;;;5072906;28;20041;-79
2022/03/05 07:48:52;;;;;;;147.70;90.88;;;5.20;99.90;;;;;;5069207;28;20119;-80
2022/03/05 07:51:19;;;;;;;149.50;88.00;;;5.40;99.90;;;;;;5043414;28;20071;-79
2022/03/05 07:53:47;;;;;;;153.25;90.45;;;5.50;99.90;;;;;;5042973;28;20059;-80
2022/03/05 07:56:14;;;;;;;108.05;65.72;;;5.50;99.90;;;;;;5079071;28;20108;-79
2022/03/05 07:58:42;;;;;;;135.38;76.93;;;5.70;1.00;;;;;;5084664;28;20063;-81
2022/03/05 08:01:10;;;;;;;112.25;63.15;;;5.60;1.00;;;;;;5067409;28;20045;-78
2022/03/05 08:03:39;;;;;;;107.45;65.25;;;5.70;1.00;;;;;;5053224;28;20135;-81
2022/03/05 08:06:06;;;;;;;97.22;60.03;;;5.70;1.00;;;;;;5073200;28;20111;-79
2022/03/05 08:08:33;;;;;;;105.05;62.42;;;5.80;99.90;;;;;;5045817;28;20158;-78
2022/03/05 08:11:01;;;;;;;94.97;56.72;;;5.80;99.90;;;;;;5072957;28;20044;-79
2022/03/05 08:13:29;;;;;;;89.65;54.97;;;5.90;99.90;;;;;;5069682;28;20065;-81
2022/03/05 08:15:57;;;;;;;88.53;53.50;;;6.00;99.90;;;;;;5070588;28;20041;-80
2022/03/05 08:18:24;;;;;;;93.20;54.08;;;6.10;99.90;;;;;;5074257;28;20049;-82
2022/03/05 08:20:53;;;;;;;87.90;51.83;;;6.10;99.90;;;;;;5076170;28;20053;-81
2022/03/05 08:23:20;;;;;;;78.63;48.42;;;5.80;99.90;;;;;;5069346;28;20520;-79
2022/03/05 08:25:48;;;;;;;85.13;48.00;;;5.60;1.00;;;;;;5071037;28;20079;-80
2022/03/05 08:28:17;;;;;;;77.95;45.03;;;5.60;99.90;;;;;;5070679;28;20041;-79
2022/03/05 08:30:45;;;;;;;76.82;46.50;;;5.50;99.90;;;;;;5052144;28;20057;-79
2022/03/05 08:33:13;;;;;;;71.75;44.83;;;5.50;1.00;;;;;;5070248;28;20037;-80
2022/03/05 08:35:40;;;;;;;78.60;46.13;;;5.60;1.00;;;;;;5067557;28;20044;-80
2022/03/05 08:38:09;;;;;;;73.60;43.67;;;5.60;1.00;;;;;;5069943;28;20096;-81
2022/03/05 08:40:37;;;;;;;70.38;44.28;;;5.60;1.00;;;;;;5049159;28;20101;-80
2022/03/05 08:43:04;;;;;;;69.50;42.13;;;5.70;1.00;;;;;;5030606;28;20053;-80
2022/03/05 08:45:32;;;;;;;72.75;44.53;;;5.90;1.00;;;;;;5031238;28;20037;-78
2022/03/05 08:47:59;;;;;;;71.05;44.35;;;6.10;99.10;;;;;;5069625;28;20068;-79
2022/03/05 08:50:28;;;;;;;70.10;41.33;;;6.40;1.00;;;;;;5049918;28;20041;-81
2022/03/05 08:52:55;;;;;;;73.65;41.50;;;6.30;99.90;;;;;;5062233;28;20044;-82
2022/03/05 08:55:24;;;;;;;65.70;40.58;;;6.30;1.00;;;;;;5059546;28;20041;-81
2022/03/05 08:57:52;;;;;;;66.80;40.00;;;6.40;99.90;;;;;;5057508;28;20045;-78
2022/03/05 09:00:20;;;;;;;65.43;40.65;;;6.50;99.90;;;;;;5066638;28;20037;-80
2022/03/05 09:02:47;;;;;;;50.50;32.20;;;6.70;1.00;;;;;;5048947;28;20037;-81
2022/03/05 09:05:15;;;;;;;49.90;29.92;;;6.60;23.20;;;;;;5041469;28;20037;-80
2022/03/05 09:07:43;;;;;;;44.42;29.08;;;6.20;1.00;;;;;;5023579;28;20045;-81
2022/03/05 09:10:12;;;;;;;43.60;28.73;;;6.10;99.90;;;;;;5041047;28;20037;-80
2022/03/05 09:12:42;;;;;;;46.63;28.30;;;6.00;1.00;;;;;;5041656;28;20049;-80
2022/03/05 09:15:10;;;;;;;46.38;28.98;;;5.80;1.00;;;;;;5032365;28;20040;-80
2022/03/05 09:17:38;;;;;;;47.70;29.70;;;5.70;1.00;;;;;;5043258;28;20045;-79
2022/03/05 09:20:06;;;;;;;49.05;31.92;;;5.60;1.00;;;;;;5059324;28;20053;-81
2022/03/05 09:22:34;;;;;;;53.35;33.25;;;5.50;1.00;;;;;;5061284;28;20049;-81
2022/03/05 09:25:02;;;;;;;48.28;30.10;;;5.60;1.00;;;;;;5043453;28;20051;-81
2022/03/05 09:27:30;;;;;;;48.97;30.33;;;5.60;1.00;;;;;;5061785;28;20049;-79
2022/03/05 09:29:59;;;;;;;53.75;32.95;;;5.70;1.00;;;;;;5059748;28;20488;-80
2022/03/05 09:32:27;;;;;;;51.22;31.48;;;5.80;1.00;;;;;;5040051;28;20053;-81
2022/03/05 09:34:54;;;;;;;55.00;34.05;;;5.90;1.00;;;;;;5040577;28;20108;-81
2022/03/05 09:37:22;;;;;;;53.85;33.03;;;5.90;1.00;;;;;;5058875;28;20124;-80
2022/03/05 09:39:50;;;;;;;54.35;32.17;;;5.90;1.00;;;;;;5054827;28;20400;-81
2022/03/05 09:42:18;;;;;;;51.83;33.22;;;5.70;1.00;;;;;;5038418;28;20045;-81
2022/03/05 09:44:46;;;;;;;55.65;34.17;;;5.60;1.00;;;;;;5019775;28;20057;-79
2022/03/05 09:47:16;;;;;;;54.60;33.63;;;5.60;1.00;;;;;;5051722;28;20037;-79
2022/03/05 09:49:44;;;;;;;58.47;35.25;;;5.80;1.00;;;;;;5058779;28;20060;-82
2022/03/05 09:52:12;;;;;;;49.75;32.72;;;5.80;1.00;;;;;;5056591;28;20040;-80
2022/03/05 09:54:39;;;;;;;53.38;33.78;;;5.70;1.00;;;;;;5058539;28;20136;-81
2022/03/05 09:57:11;;;;;;;53.50;33.65;;;5.80;1.00;;;;;;5054389;28;20052;-80
2022/03/05 09:59:39;;;;;;;53.92;33.97;;;6.00;1.00;;;;;;5055846;28;20047;-80
2022/03/05 10:02:07;;;;;;;53.80;35.08;;;6.20;1.00;;;;;;5055449;28;20040;-81
2022/03/05 10:04:36;;;;;;;56.83;34.70;;;6.10;1.00;;;;;;5057171;28;20136;-81
2022/03/05 10:07:11;;;;;;;49.08;31.02;;;6.10;1.00;;;;;;5057354;28;20063;-80
2022/03/05 10:09:42;;;;;;;50.15;32.50;;;6.30;1.00;;;;;;5057928;28;20043;-82
2022/03/05 10:12:30;;;;;;;46.78;29.38;;;6.30;1.00;;;;;;5058683;28;20049;-81
2022/03/05 10:15:06;;;;;;;48.55;28.50;;;6.00;1.00;;;;;;5039509;28;20045;-81
2022/03/05 10:17:51;;;;;;;47.92;28.27;;;6.10;1.00;;;;;;5048477;28;20099;-81
2022/03/05 10:20:21;;;;;;;50.60;28.88;;;6.30;1.00;;;;;;5060341;28;20133;-80
2022/03/05 10:23:00;;;;;;;59.40;31.23;;;6.10;1.00;;;;;;5061653;28;20480;-82
2022/03/05 10:25:34;;;;;;;40.92;26.33;;;6.40;1.00;;;;;;5049220;28;20045;-78
2022/03/05 10:28:03;;;;;;;41.97;25.77;;;6.20;1.00;;;;;;5069563;28;20049;-82
2022/03/05 10:30:32;;;;;;;41.28;24.23;;;6.30;1.00;;;;;;5059181;28;20151;-82
2022/03/05 10:33:00;;;;;;;40.05;24.90;;;6.00;1.00;;;;;;5039891;28;20042;-80
2022/03/05 10:35:30;;;;;;;39.90;25.38;;;5.90;1.00;;;;;;5022808;28;20052;-79
2022/03/05 10:37:58;;;;;;;38.10;24.75;;;5.90;1.00;;;;;;5042679;28;20045;-82
2022/03/05 10:40:30;;;;;;;44.17;25.33;;;5.80;1.00;;;;;;5048258;28;20072;-80
2022/03/05 10:43:03;;;;;;;41.60;26.33;;;5.90;1.00;;;;;;5053155;28;20045;-81
2022/03/05 10:45:31;;;;;;;39.92;26.83;;;5.90;1.00;;;;;;5071069;28;20068;-81
2022/03/05 10:48:02;;;;;;;40.10;25.45;;;6.00;46.30;;;;;;5069864;28;20048;-80
2022/03/05 10:50:33;;;;;;;47.28;27.08;;;5.90;47.40;;;;;;5042397;28;20037;-81
2022/03/05 10:53:02;;;;;;;45.75;27.15;;;6.10;48.50;;;;;;5059940;28;20116;-81
2022/03/05 10:55:40;;;;;;;43.08;25.98;;;6.10;49.90;;;;;;5073755;28;20029;-81
2022/03/05 10:58:13;;;;;;;45.17;26.83;;;6.50;1.00;;;;;;5062839;28;20103;-80
2022/03/05 11:00:42;;;;;;;53.65;28.00;;;6.50;1.00;;;;;;5059970;28;20036;-80
2022/03/05 11:03:10;;;;;;;41.30;27.40;;;6.60;1.00;;;;;;5047599;28;20445;-82
2022/03/05 11:05:40;;;;;;;44.28;27.00;;;6.60;1.00;;;;;;5028020;28;20045;-80
2022/03/05 11:08:08;;;;;;;42.28;26.67;;;6.80;1.00;;;;;;5055411;28;20076;-82
2022/03/05 11:10:35;;;;;;;39.58;26.85;;;6.90;1.00;;;;;;5068607;28;20047;-80
2022/03/05 11:13:05;;;;;;;42.10;26.60;;;6.60;1.00;;;;;;5070033;28;20132;-79
2022/03/05 11:15:33;;;;;;;50.50;26.50;;;6.60;1.00;;;;;;5038022;28;20134;-79
2022/03/05 11:18:01;;;;;;;42.40;26.65;;;7.00;1.00;;;;;;5062130;28;20075;-79
2022/03/05 11:20:29;;;;;;;41.08;26.08;;;7.20;1.00;;;;;;5096443;22;20074;-78
2022/03/05 11:23:00;;;;;;;39.55;25.90;;;7.20;1.00;;;;;;5055087;28;20580;-78
2022/03/05 11:25:33;;;;;;;40.80;26.73;;;7.20;1.00;;;;;;5057471;28;20040;-81
2022/03/05 11:28:05;;;;;;;41.83;26.10;;;6.80;1.00;;;;;;5057033;28;20044;-77
2022/03/05 11:30:42;;;;;;;45.53;27.55;;;7.10;1.00;;;;;;5041583;28;20045;-79
2022/03/05 11:33:12;;;;;;;44.92;28.48;;;7.10;1.00;;;;;;5049508;28;20553;-81
2022/03/05 11:35:43;;;;;;;46.53;27.60;;;7.00;1.00;;;;;;5065711;28;20056;-82
2022/03/05 11:38:33;;;;;;;39.80;25.98;;;6.80;1.00;;;;;;5086633;28;20121;-81
2022/03/05 11:41:05;;;;;;;43.10;26.77;;;6.40;1.00;;;;;;5081832;28;20048;-78
2022/03/05 11:43:42;;;;;;;49.65;29.27;;;6.40;1.00;;;;;;5080783;28;20094;-80
2022/03/05 11:46:23;;;;;;;41.22;26.27;;;6.60;1.00;;;;;;5098175;28;20130;-79
2022/03/05 11:49:01;;;;;;;45.78;27.17;;;6.60;1.00;;;;;;5058778;28;20568;-79
2022/03/05 11:51:29;;;;;;;44.10;28.13;;;6.40;1.00;;;;;;5066242;28;20148;-79
2022/03/05 11:54:14;;;;;;;42.35;26.60;;;6.70;1.00;;;;;;5082819;28;20076;-79
2022/03/05 11:57:08;;;;;;;46.50;27.95;;;7.20;1.00;;;;;;5079624;28;20040;-80
2022/03/05 11:59:37;;;;;;;42.00;27.02;;;7.30;1.00;;;;;;5075315;28;20036;-80
2022/03/05 12:02:05;;;;;;;45.17;27.75;;;7.20;1.00;;;;;;5070594;28;20044;-77
2022/03/05 12:04:33;;;;;;;44.50;27.00;;;7.10;1.00;;;;;;5080896;28;20048;-78
2022/03/05 12:07:02;;;;;;;43.08;28.30;;;7.20;1.00;;;;;;5081675;28;20135;-78
2022/03/05 12:09:43;;;;;;;45.60;27.98;;;7.40;1.00;;;;;;5098990;28;20044;-78
2022/03/05 12:12:17;;;;;;;42.95;27.38;;;7.30;1.00;;;;;;5081387;28;20418;-77
2022/03/05 12:15:14;;;;;;;45.95;28.20;;;7.50;1.00;;;;;;5099988;28;20047;-78
2022/03/05 12:17:49;;;;;;;45.38;29.00;;;7.50;1.00;;;;;;5083087;28;20041;-80
2022/03/05 12:20:20;;;;;;;47.67;29.85;;;7.50;1.00;;;;;;5080142;28;20045;-80
2022/03/05 12:22:55;;;;;;;47.65;29.77;;;7.50;1.00;;;;;;5078858;28;20073;-78
2022/03/05 12:25:25;;;;;;;57.15;31.20;;;7.10;1.00;;;;;;5081161;28;20084;-78
2022/03/05 12:27:53;;;;;;;45.80;28.52;;;6.80;1.00;;;;;;5061119;28;20048;-78
2022/03/05 12:30:22;;;;;;;48.40;30.25;;;6.70;1.00;;;;;;5064881;28;20040;-76
2022/03/05 12:32:51;;;;;;;51.50;30.90;;;7.00;1.00;;;;;;5079748;28;20464;-77
2022/03/05 12:35:19;;;;;;;51.55;32.05;;;7.10;1.00;;;;;;5079800;28;20048;-77
2022/03/05 12:37:46;;;;;;;52.22;32.05;;;6.90;1.00;;;;;;5069664;28;20048;-79
2022/03/05 12:40:15;;;;;;;69.97;33.20;;;7.00;1.00;;;;;;5093374;28;20044;-77
2022/03/05 12:42:46;;;;;;;54.72;31.95;;;7.00;1.00;;;;;;5083005;28;20047;-78
2022/03/05 12:45:19;;;;;;;57.17;34.67;;;7.00;1.00;;;;;;5082812;28;20144;-78